createdAt,value
2023-05-19T00:01:55.074Z,87.46
2023-05-19T00:04:21.876Z,87.49
2023-05-19T00:06:50.318Z,88.72
2023-05-19T00:09:16.835Z,88.20
2023-05-19T00:11:43.397Z,89.24
2023-05-19T00:14:10.085Z,89.07
2023-05-19T00:16:36.724Z,88.92
2023-05-19T00:19:03.652Z,88.62
2023-05-19T00:21:30.167Z,88.73
2023-05-19T00:23:56.610Z,89.12
2023-05-19T00:26:23.318Z,89.18
2023-05-19T00:28:49.832Z,89.24
2023-05-19T00:31:16.695Z,88.98
2023-05-19T00:33:43.198Z,89.38
2023-05-19T00:36:09.660Z,89.08
2023-05-19T00:38:36.620Z,90.17
2023-05-19T00:41:03.658Z,89.08
2023-05-19T00:43:30.106Z,88.16
2023-05-19T00:45:56.955Z,89.13
2023-05-19T00:48:24.607Z,90.03
2023-05-19T00:50:51.225Z,89.68
2023-05-19T00:53:17.753Z,90.42
2023-05-19T00:55:44.274Z,89.92
2023-05-19T00:58:10.807Z,90.18
2023-05-19T01:00:37.364Z,89.77
2023-05-19T01:03:04.916Z,89.31
2023-05-19T01:05:31.602Z,90.37
2023-05-19T01:07:58.218Z,90.62
2023-05-19T01:10:24.676Z,90.88
2023-05-19T01:12:51.118Z,91.01
2023-05-19T01:15:17.804Z,91.04
2023-05-19T01:18:03.321Z,91.34
2023-05-19T01:20:36.289Z,91.90
2023-05-19T01:23:05.887Z,91.96
2023-05-19T01:25:50.547Z,91.06
2023-05-19T01:28:35.559Z,90.82
2023-05-19T01:31:02.096Z,91.19
2023-05-19T01:33:28.716Z,91.43
2023-05-19T01:35:55.436Z,90.16
2023-05-19T01:38:21.959Z,90.25
2023-05-19T01:40:48.486Z,91.66
2023-05-19T01:43:16.708Z,90.25
2023-05-19T01:45:43.157Z,90.66
2023-05-19T01:48:11.276Z,90.51
2023-05-19T01:50:37.882Z,91.41
2023-05-19T01:53:04.433Z,90.39
2023-05-19T01:55:31.017Z,91.55
2023-05-19T01:58:16.000Z,90.53
2023-05-19T02:00:52.730Z,91.06
2023-05-19T02:03:42.763Z,91.01
2023-05-19T02:06:09.256Z,92.80
2023-05-19T02:08:38.623Z,92.12
2023-05-19T02:11:09.170Z,91.44
2023-05-19T02:13:36.742Z,91.66
2023-05-19T02:16:03.789Z,92.64
2023-05-19T02:18:30.356Z,91.96
2023-05-19T02:20:56.853Z,92.40
2023-05-19T02:23:23.404Z,93.33
2023-05-19T02:25:49.928Z,92.74
2023-05-19T02:28:16.463Z,92.71
2023-05-19T02:30:42.913Z,93.30
2023-05-19T02:33:09.402Z,92.02
2023-05-19T02:35:35.936Z,91.63
2023-05-19T02:38:02.422Z,92.69
2023-05-19T02:40:28.888Z,92.92
2023-05-19T02:42:55.375Z,92.37
2023-05-19T02:45:21.909Z,92.58
2023-05-19T02:47:48.410Z,92.61
2023-05-19T02:50:14.896Z,93.52
2023-05-19T02:52:41.398Z,92.88
2023-05-19T02:55:08.077Z,92.69
2023-05-19T02:57:34.755Z,93.80
2023-05-19T03:00:02.473Z,95.04
2023-05-19T03:02:29.038Z,94.94
2023-05-19T03:04:55.576Z,93.13
2023-05-19T03:07:22.124Z,93.40
2023-05-19T03:09:48.674Z,94.17
2023-05-19T03:12:15.171Z,94.74
2023-05-19T03:14:41.704Z,93.41
2023-05-19T03:17:08.396Z,94.35
2023-05-19T03:19:35.036Z,95.32
2023-05-19T03:22:01.534Z,96.26
2023-05-19T03:24:28.070Z,96.28
2023-05-19T03:26:54.510Z,95.45
2023-05-19T03:29:21.178Z,95.36
2023-05-19T03:31:47.752Z,95.74
2023-05-19T03:34:14.310Z,95.72
2023-05-19T03:36:40.724Z,96.04
2023-05-19T03:39:07.182Z,96.07
2023-05-19T03:41:33.622Z,96.11
2023-05-19T03:44:00.103Z,95.72
2023-05-19T03:46:26.790Z,95.24
2023-05-19T03:48:53.322Z,96.47
2023-05-19T03:51:19.748Z,96.21
2023-05-19T03:53:46.214Z,96.64
2023-05-19T03:56:12.762Z,97.21
2023-05-19T03:58:39.518Z,96.80
2023-05-19T04:01:06.008Z,96.75
2023-05-19T04:03:32.564Z,95.87
2023-05-19T04:05:59.081Z,96.60
2023-05-19T04:08:25.499Z,95.62
2023-05-19T04:10:51.968Z,95.45
2023-05-19T04:13:18.401Z,95.29
2023-05-19T04:15:44.919Z,94.60
2023-05-19T04:18:11.578Z,94.29
2023-05-19T04:20:38.144Z,95.09
2023-05-19T04:23:04.685Z,95.63
2023-05-19T04:25:31.260Z,95.48
2023-05-19T04:27:57.904Z,96.58
2023-05-19T04:30:24.641Z,97.66
2023-05-19T04:32:51.211Z,96.52
2023-05-19T04:35:18.458Z,96.39
2023-05-19T04:37:47.985Z,95.65
2023-05-19T04:40:14.542Z,94.55
2023-05-19T04:42:41.129Z,95.73
2023-05-19T04:45:08.044Z,95.07
2023-05-19T04:47:34.824Z,95.67
2023-05-19T04:50:01.580Z,94.76
2023-05-19T04:52:28.160Z,94.93
2023-05-19T04:54:54.693Z,95.38
2023-05-19T04:57:21.221Z,95.04
2023-05-19T04:59:47.741Z,94.44
2023-05-19T05:02:14.907Z,94.33
2023-05-19T05:04:41.491Z,95.04
2023-05-19T05:07:08.305Z,93.79
2023-05-19T05:09:34.775Z,93.51
2023-05-19T05:12:01.676Z,94.56
2023-05-19T05:14:28.352Z,94.14
2023-05-19T05:16:55.038Z,93.06
2023-05-19T05:19:21.702Z,92.71
2023-05-19T05:21:48.292Z,91.56
2023-05-19T05:24:14.888Z,92.71
2023-05-19T05:26:41.608Z,91.62
2023-05-19T05:29:08.741Z,91.20
2023-05-19T05:31:35.666Z,90.20
2023-05-19T05:34:02.158Z,90.34
2023-05-19T05:36:28.578Z,90.12
2023-05-19T05:38:55.065Z,88.58
2023-05-19T05:41:23.300Z,88.70
2023-05-19T05:43:49.874Z,87.84
2023-05-19T05:46:16.649Z,87.13
2023-05-19T05:48:43.533Z,86.10
2023-05-19T05:51:10.177Z,86.69
2023-05-19T05:53:37.225Z,86.06
2023-05-19T05:56:03.866Z,85.22
2023-05-19T05:58:30.342Z,84.76
2023-05-19T06:00:56.845Z,84.11
2023-05-19T06:03:23.500Z,84.60
2023-05-19T06:05:50.027Z,84.14
2023-05-19T06:08:16.562Z,84.14
2023-05-19T06:10:45.112Z,83.64
2023-05-19T06:13:13.062Z,83.59
2023-05-19T06:15:39.654Z,83.02
2023-05-19T06:18:06.320Z,84.32
2023-05-19T06:20:33.184Z,82.68
2023-05-19T06:23:00.155Z,81.57
2023-05-19T06:25:26.697Z,80.84
2023-05-19T06:27:53.171Z,79.23
2023-05-19T06:30:19.684Z,81.18
2023-05-19T06:32:46.244Z,79.51
2023-05-19T06:35:12.825Z,77.78
2023-05-19T06:37:39.278Z,78.75
2023-05-19T06:40:06.092Z,77.96
2023-05-19T06:42:32.589Z,76.81
2023-05-19T06:44:58.991Z,76.82
2023-05-19T06:47:25.707Z,77.33
2023-05-19T06:49:52.666Z,75.65
2023-05-19T06:52:19.181Z,75.81
2023-05-19T06:54:45.736Z,74.87
2023-05-19T06:57:12.181Z,74.15
2023-05-19T06:59:38.651Z,74.47
2023-05-19T07:02:05.139Z,74.91
2023-05-19T07:04:31.672Z,73.28
2023-05-19T07:06:58.213Z,74.52
2023-05-19T07:09:24.763Z,72.76
2023-05-19T07:11:51.200Z,72.90
2023-05-19T07:14:17.619Z,72.97
2023-05-19T07:16:44.136Z,73.81
2023-05-19T07:19:10.638Z,72.32
2023-05-19T07:21:37.327Z,71.63
2023-05-19T07:24:03.883Z,72.64
2023-05-19T07:26:30.322Z,73.91
2023-05-19T07:28:56.766Z,73.43
2023-05-19T07:31:23.328Z,72.53
2023-05-19T07:33:50.727Z,72.33
2023-05-19T07:36:18.394Z,69.77
2023-05-19T07:38:45.907Z,72.18
2023-05-19T07:41:12.434Z,72.48
2023-05-19T07:43:38.908Z,72.06
2023-05-19T07:46:05.642Z,72.09
2023-05-19T07:48:32.112Z,72.26
2023-05-19T07:50:58.615Z,71.93
2023-05-19T07:53:25.170Z,72.96
2023-05-19T07:55:51.633Z,74.79
2023-05-19T07:58:18.104Z,72.53
2023-05-19T08:00:44.643Z,72.84
2023-05-19T08:03:11.398Z,71.91
2023-05-19T08:05:37.925Z,73.50
2023-05-19T08:08:04.451Z,72.36
2023-05-19T08:10:31.231Z,71.92
2023-05-19T08:12:58.115Z,71.03
2023-05-19T08:15:24.619Z,72.62
2023-05-19T08:17:51.096Z,72.65
2023-05-19T08:20:17.577Z,73.69
2023-05-19T08:22:44.067Z,69.14
2023-05-19T08:25:10.543Z,72.03
2023-05-19T08:27:36.989Z,71.96
2023-05-19T08:30:03.542Z,69.64
2023-05-19T08:32:30.057Z,67.71
2023-05-19T08:34:56.517Z,68.15
2023-05-19T08:37:23.020Z,63.42
2023-05-19T08:39:49.547Z,63.44
2023-05-19T08:42:15.985Z,61.65
2023-05-19T08:44:42.465Z,60.71
2023-05-19T08:47:08.980Z,61.31
2023-05-19T08:49:35.585Z,60.21
2023-05-19T08:52:05.099Z,60.66
2023-05-19T08:54:33.197Z,58.34
2023-05-19T08:56:59.672Z,61.33
2023-05-19T08:59:26.192Z,63.47
2023-05-19T09:01:52.676Z,62.09
2023-05-19T09:04:19.227Z,64.05
2023-05-19T09:06:46.040Z,63.66
2023-05-19T09:09:12.557Z,64.63
2023-05-19T09:11:39.084Z,64.35
2023-05-19T09:14:05.595Z,64.34
2023-05-19T09:16:32.611Z,64.54
2023-05-19T09:18:59.264Z,65.44
2023-05-19T09:21:29.230Z,64.68
2023-05-19T09:23:55.650Z,63.46
2023-05-19T09:26:22.385Z,65.12
2023-05-19T09:28:48.874Z,65.55
2023-05-19T09:31:15.313Z,64.31
2023-05-19T09:33:44.317Z,65.67
2023-05-19T09:36:12.284Z,65.71
2023-05-19T09:38:38.795Z,63.93
2023-05-19T09:41:05.894Z,65.85
2023-05-19T09:43:32.693Z,67.41
2023-05-19T09:46:05.896Z,66.64
2023-05-19T09:48:32.750Z,66.37
2023-05-19T09:51:00.236Z,63.97
2023-05-19T09:53:26.838Z,65.45
2023-05-19T09:55:56.473Z,65.28
2023-05-19T09:58:22.906Z,63.63
2023-05-19T10:00:49.350Z,63.57
2023-05-19T10:03:15.899Z,64.04
2023-05-19T10:05:42.468Z,61.77
2023-05-19T10:08:08.984Z,59.32
2023-05-19T10:10:35.485Z,61.44
2023-05-19T10:13:02.375Z,61.59
2023-05-19T10:15:28.867Z,62.00
2023-05-19T10:17:55.464Z,61.28
2023-05-19T10:20:22.744Z,61.37
2023-05-19T10:22:49.144Z,60.06
2023-05-19T10:25:15.707Z,61.74
2023-05-19T10:27:42.979Z,60.38
2023-05-19T10:30:15.747Z,61.31
2023-05-19T10:32:43.531Z,62.55
2023-05-19T10:35:10.057Z,62.45
2023-05-19T10:37:42.444Z,62.30
2023-05-19T10:40:10.475Z,61.55
2023-05-19T10:42:41.887Z,60.24
2023-05-19T10:45:14.619Z,61.21
2023-05-19T10:47:41.534Z,62.33
2023-05-19T10:50:08.302Z,62.43
2023-05-19T10:52:38.180Z,59.82
2023-05-19T10:55:04.889Z,59.47
2023-05-19T10:57:31.693Z,58.37
2023-05-19T10:59:58.219Z,60.00
2023-05-19T11:02:40.547Z,60.25
2023-05-19T11:05:16.151Z,59.76
2023-05-19T11:07:42.857Z,58.52
2023-05-19T11:10:09.389Z,57.74
2023-05-19T11:12:42.649Z,56.19
2023-05-19T11:15:13.326Z,58.31
2023-05-19T11:17:40.049Z,57.46
2023-05-19T11:20:07.457Z,57.56
2023-05-19T11:22:34.048Z,58.27
2023-05-19T11:25:00.688Z,58.96
2023-05-19T11:27:27.835Z,58.23
2023-05-19T11:29:54.935Z,59.22
2023-05-19T11:32:21.846Z,57.88
2023-05-19T11:34:48.756Z,57.52
2023-05-19T11:37:15.786Z,56.24
2023-05-19T11:39:42.244Z,59.19
2023-05-19T11:42:08.912Z,57.88
2023-05-19T11:44:35.342Z,58.04
2023-05-19T11:47:01.771Z,58.00
2023-05-19T11:49:28.853Z,59.51
2023-05-19T11:51:55.257Z,57.70
2023-05-19T11:54:21.835Z,57.65
2023-05-19T11:56:48.319Z,58.18
2023-05-19T11:59:14.806Z,59.69
2023-05-19T12:01:41.259Z,59.64
2023-05-19T12:04:08.275Z,57.09
2023-05-19T12:06:34.847Z,59.49
2023-05-19T12:09:01.307Z,58.76
2023-05-19T12:11:28.268Z,57.46
2023-05-19T12:13:58.667Z,55.61
2023-05-19T12:16:33.434Z,56.25
2023-05-19T12:19:00.332Z,54.16
2023-05-19T12:21:34.238Z,55.99
2023-05-19T12:24:01.008Z,55.41
2023-05-19T12:26:27.544Z,56.14
2023-05-19T12:28:53.968Z,57.63
2023-05-19T12:31:20.536Z,57.09
2023-05-19T12:33:48.500Z,57.53
2023-05-19T12:36:15.688Z,55.72
2023-05-19T12:38:42.173Z,57.75
2023-05-19T12:41:10.498Z,58.75
2023-05-19T12:43:36.957Z,58.24
2023-05-19T12:46:12.794Z,60.01
2023-05-19T12:48:43.260Z,56.36
2023-05-19T12:51:09.811Z,57.55
2023-05-19T12:53:37.423Z,56.90
2023-05-19T12:56:10.188Z,57.07
2023-05-19T12:58:36.702Z,58.91
2023-05-19T13:01:03.252Z,59.27
2023-05-19T13:03:30.168Z,56.29
2023-05-19T13:05:56.740Z,58.51
2023-05-19T13:08:23.295Z,57.56
2023-05-19T13:10:49.804Z,57.23
2023-05-19T13:13:16.249Z,53.32
2023-05-19T13:15:46.452Z,57.53
2023-05-19T13:18:13.172Z,56.43
2023-05-19T13:20:40.645Z,57.88
2023-05-19T13:23:07.197Z,53.66
2023-05-19T13:25:33.901Z,55.00
2023-05-19T13:28:00.490Z,56.28
2023-05-19T13:30:27.292Z,56.08
2023-05-19T13:32:53.817Z,56.54
2023-05-19T13:35:20.336Z,58.52
2023-05-19T13:37:46.872Z,58.42
2023-05-19T13:40:13.458Z,57.78
2023-05-19T13:42:40.379Z,54.23
2023-05-19T13:45:07.368Z,57.65
2023-05-19T13:47:33.868Z,59.39
2023-05-19T13:50:00.332Z,58.58
2023-05-19T13:52:28.377Z,58.85
2023-05-19T13:54:56.936Z,56.52
2023-05-19T13:57:23.672Z,56.18
2023-05-19T14:00:02.035Z,55.04
2023-05-19T14:02:29.820Z,57.00
2023-05-19T14:04:56.726Z,56.55
2023-05-19T14:07:23.182Z,59.38
2023-05-19T14:09:49.609Z,57.85
2023-05-19T14:12:16.114Z,57.39
2023-05-19T14:14:42.636Z,59.34
2023-05-19T14:17:09.408Z,60.74
2023-05-19T14:19:36.095Z,59.29
2023-05-19T14:22:02.522Z,55.68
2023-05-19T14:24:28.988Z,55.94
2023-05-19T14:26:55.588Z,56.46
2023-05-19T14:29:22.091Z,58.55
2023-05-19T14:31:48.692Z,58.65
2023-05-19T14:34:15.222Z,58.01
2023-05-19T14:36:41.671Z,58.34
2023-05-19T14:39:08.096Z,56.17
2023-05-19T14:41:34.596Z,56.57
2023-05-19T14:44:01.118Z,57.46
2023-05-19T14:46:27.822Z,55.54
2023-05-19T14:48:54.519Z,56.24
2023-05-19T14:51:21.028Z,57.64
2023-05-19T14:53:47.537Z,56.95
2023-05-19T14:56:14.204Z,56.19
2023-05-19T14:58:40.742Z,58.74
2023-05-19T15:01:07.363Z,56.54
2023-05-19T15:03:33.875Z,56.52
2023-05-19T15:06:00.500Z,58.15
2023-05-19T15:08:26.995Z,59.78
2023-05-19T15:10:53.485Z,59.68
2023-05-19T15:13:19.999Z,59.84
2023-05-19T15:15:46.558Z,58.23
2023-05-19T15:18:13.229Z,59.54
2023-05-19T15:20:39.933Z,58.99
2023-05-19T15:23:06.393Z,59.21
2023-05-19T15:25:32.902Z,58.66
2023-05-19T15:27:59.328Z,59.93
2023-05-19T15:30:25.771Z,58.85
2023-05-19T15:32:52.304Z,58.40
2023-05-19T15:35:18.838Z,59.33
2023-05-19T15:37:45.256Z,57.09
2023-05-19T15:40:11.883Z,56.62
2023-05-19T15:42:38.355Z,58.84
2023-05-19T15:45:05.512Z,57.59
2023-05-19T15:47:32.318Z,58.28
2023-05-19T15:49:58.830Z,58.68
2023-05-19T15:52:25.370Z,56.76
2023-05-19T15:54:51.914Z,58.61
2023-05-19T15:57:18.342Z,58.88
2023-05-19T15:59:44.775Z,60.23
2023-05-19T16:02:11.363Z,58.56
2023-05-19T16:04:37.897Z,60.05
2023-05-19T16:07:04.400Z,60.20
2023-05-19T16:09:30.911Z,61.34
2023-05-19T16:11:57.345Z,61.07
2023-05-19T16:14:23.799Z,61.13
2023-05-19T16:16:50.330Z,60.00
2023-05-19T16:19:16.851Z,62.37
2023-05-19T16:21:43.344Z,60.89
2023-05-19T16:24:09.825Z,60.59
2023-05-19T16:26:36.380Z,61.27
2023-05-19T16:29:02.779Z,61.77
2023-05-19T16:31:29.353Z,61.97
2023-05-19T16:33:55.833Z,60.95
2023-05-19T16:36:22.323Z,62.06
2023-05-19T16:38:48.892Z,62.39
2023-05-19T16:41:15.380Z,62.78
2023-05-19T16:43:41.812Z,62.49
2023-05-19T16:46:08.343Z,63.86
2023-05-19T16:48:34.807Z,63.45
2023-05-19T16:51:01.253Z,63.29
2023-05-19T16:53:27.733Z,63.73
2023-05-19T16:55:54.190Z,64.02
2023-05-19T16:58:20.625Z,64.14
2023-05-19T17:00:50.942Z,64.96
2023-05-19T17:03:17.528Z,65.45
2023-05-19T17:05:44.010Z,65.26
2023-05-19T17:08:10.602Z,65.21
2023-05-19T17:10:37.535Z,67.15
2023-05-19T17:13:03.969Z,65.83
2023-05-19T17:15:30.516Z,66.90
2023-05-19T17:17:57.000Z,66.75
2023-05-19T17:20:23.512Z,66.93
2023-05-19T17:22:49.993Z,65.50
2023-05-19T17:25:16.428Z,66.07
2023-05-19T17:27:42.870Z,66.87
2023-05-19T17:30:09.511Z,66.73
2023-05-19T17:32:36.158Z,66.17
2023-05-19T17:35:02.764Z,65.89
2023-05-19T17:37:29.595Z,68.46
2023-05-19T17:39:56.085Z,67.97
2023-05-19T17:42:22.550Z,68.60
2023-05-19T17:44:49.090Z,67.43
2023-05-19T17:47:15.532Z,67.52
2023-05-19T17:49:41.965Z,68.05
2023-05-19T17:52:08.731Z,69.08
2023-05-19T17:54:35.367Z,68.57
2023-05-19T17:57:02.038Z,69.17
2023-05-19T17:59:28.595Z,70.20
2023-05-19T18:01:55.213Z,69.88
2023-05-19T18:04:21.938Z,70.81
2023-05-19T18:06:48.559Z,69.45
2023-05-19T18:09:15.094Z,70.08
2023-05-19T18:11:43.378Z,70.43
2023-05-19T18:14:09.908Z,70.60
2023-05-19T18:16:36.391Z,71.11
2023-05-19T18:19:03.138Z,70.74
2023-05-19T18:21:29.784Z,69.64
2023-05-19T18:23:56.311Z,69.67
2023-05-19T18:26:22.766Z,70.47
2023-05-19T18:28:49.245Z,70.82
2023-05-19T18:31:15.843Z,70.10
2023-05-19T18:33:42.339Z,70.09
2023-05-19T18:36:08.846Z,70.90
2023-05-19T18:38:35.299Z,70.87
2023-05-19T18:41:01.821Z,71.46
2023-05-19T18:43:28.323Z,71.09
2023-05-19T18:45:54.834Z,71.35
2023-05-19T18:48:21.349Z,71.92
2023-05-19T18:50:47.813Z,72.62
2023-05-19T18:53:14.291Z,73.38
2023-05-19T18:55:40.732Z,72.76
2023-05-19T18:58:07.225Z,72.40
2023-05-19T19:00:35.461Z,72.53
2023-05-19T19:03:02.110Z,73.60
2023-05-19T19:05:28.667Z,72.65
2023-05-19T19:07:55.137Z,73.66
2023-05-19T19:10:21.729Z,73.52
2023-05-19T19:12:48.283Z,72.87
2023-05-19T19:15:14.746Z,73.19
2023-05-19T19:17:41.218Z,73.13
2023-05-19T19:20:08.162Z,74.73
2023-05-19T19:22:34.661Z,74.97
2023-05-19T19:25:01.153Z,74.78
2023-05-19T19:27:27.627Z,74.93
2023-05-19T19:29:54.053Z,74.77
2023-05-19T19:32:20.490Z,75.10
2023-05-19T19:34:47.239Z,74.91
2023-05-19T19:37:13.751Z,75.14
2023-05-19T19:39:40.242Z,76.07
2023-05-19T19:42:06.732Z,75.87
2023-05-19T19:44:33.205Z,75.57
2023-05-19T19:46:59.610Z,75.47
2023-05-19T19:49:26.178Z,76.03
2023-05-19T19:51:52.667Z,75.65
2023-05-19T19:54:19.111Z,76.11
2023-05-19T19:56:45.766Z,76.75
2023-05-19T19:59:12.244Z,76.39
2023-05-19T20:01:38.869Z,76.58
2023-05-19T20:04:05.518Z,76.94
2023-05-19T20:06:32.086Z,76.91
2023-05-19T20:08:58.596Z,77.53
2023-05-19T20:11:25.126Z,76.87
2023-05-19T20:13:51.627Z,77.78
2023-05-19T20:16:18.229Z,78.63
2023-05-19T20:18:44.775Z,78.14
2023-05-19T20:21:11.228Z,78.88
2023-05-19T20:23:37.671Z,79.04
2023-05-19T20:28:36.316Z,78.99
2023-05-19T20:31:02.744Z,79.42
2023-05-19T20:33:29.419Z,79.60
2023-05-19T20:35:55.823Z,79.87
2023-05-19T20:38:22.283Z,79.85
2023-05-19T20:40:48.820Z,80.15
2023-05-19T20:43:15.538Z,80.51
2023-05-19T20:45:44.863Z,79.28
2023-05-19T20:48:11.598Z,80.13
2023-05-19T20:50:38.978Z,81.41
2023-05-19T20:53:05.418Z,81.26
2023-05-19T20:55:32.124Z,82.14
2023-05-19T20:57:58.654Z,81.39
2023-05-19T21:00:25.095Z,82.64
2023-05-19T21:02:51.883Z,82.78
2023-05-19T21:05:18.398Z,83.89
2023-05-19T21:07:45.119Z,84.14
2023-05-19T21:10:11.612Z,84.79
2023-05-19T21:12:38.053Z,84.01
2023-05-19T21:15:04.601Z,84.98
2023-05-19T21:17:31.427Z,83.79
2023-05-19T21:19:58.077Z,84.53
2023-05-19T21:22:25.161Z,84.14
2023-05-19T21:24:51.678Z,84.05
2023-05-19T21:27:18.126Z,84.69
2023-05-19T21:29:44.572Z,84.31
2023-05-19T21:32:11.095Z,85.96
2023-05-19T21:34:37.511Z,84.49
2023-05-19T21:37:03.908Z,84.53
2023-05-19T21:39:30.397Z,86.15
2023-05-19T21:41:56.836Z,86.43
2023-05-19T21:44:23.258Z,87.52
2023-05-19T21:46:49.835Z,86.96
2023-05-19T21:49:16.548Z,87.09
2023-05-19T21:51:43.020Z,88.11
2023-05-19T21:54:09.501Z,87.67
2023-05-19T21:56:36.047Z,88.78
2023-05-19T21:59:02.483Z,87.73
2023-05-19T22:01:29.068Z,88.10
2023-05-19T22:03:55.586Z,89.42
2023-05-19T22:06:22.377Z,88.85
2023-05-19T22:08:48.924Z,88.55
2023-05-19T22:11:15.394Z,88.39
2023-05-19T22:13:41.921Z,89.08
2023-05-19T22:16:08.521Z,90.23
2023-05-19T22:18:35.040Z,89.95
2023-05-19T22:21:01.735Z,89.57
2023-05-19T22:23:28.174Z,88.94
2023-05-19T22:25:54.606Z,89.17
2023-05-19T22:28:21.020Z,88.80
2023-05-19T22:30:47.519Z,87.90
2023-05-19T22:33:13.983Z,88.49
2023-05-19T22:35:40.436Z,88.67
2023-05-19T22:38:08.878Z,88.57
2023-05-19T22:40:36.982Z,89.16
2023-05-19T22:43:03.460Z,88.62
2023-05-19T22:45:31.359Z,88.70
2023-05-19T22:47:58.018Z,88.63
2023-05-19T22:50:24.462Z,89.67
2023-05-19T22:52:50.952Z,89.59
2023-05-19T22:55:17.400Z,91.89
2023-05-19T22:57:43.812Z,91.40
2023-05-19T23:00:10.626Z,90.01
2023-05-19T23:02:37.235Z,89.99
2023-05-19T23:05:03.732Z,90.16
2023-05-19T23:07:30.328Z,90.26
2023-05-19T23:09:56.998Z,90.00
2023-05-19T23:12:23.458Z,90.77
2023-05-19T23:14:50.014Z,90.20
2023-05-19T23:17:16.526Z,90.85
2023-05-19T23:19:42.952Z,89.76
2023-05-19T23:22:11.200Z,89.72
2023-05-19T23:24:38.213Z,91.15
2023-05-19T23:27:04.796Z,91.20
2023-05-19T23:29:31.640Z,90.73
2023-05-19T23:31:58.113Z,91.31
2023-05-19T23:34:24.562Z,91.56
2023-05-19T23:36:51.061Z,91.61
2023-05-19T23:39:17.479Z,91.35
2023-05-19T23:41:43.938Z,91.32
2023-05-19T23:44:10.662Z,91.55
2023-05-19T23:46:37.148Z,92.67
2023-05-19T23:49:03.693Z,92.45
2023-05-19T23:51:30.312Z,93.00
2023-05-19T23:53:56.742Z,92.39
2023-05-19T23:56:23.192Z,92.16
2023-05-19T23:58:50.085Z,91.89
